Time;durP1;ratioP1;P1;durP2;ratioP2;P2;SDS_P1;SDS_P2;PMS_P1;PMS_P2;Temp;Humidity;BMP_temperature;BMP_pressure;BME280_temperature;BME280_humidity;BME280_pressure;Samples;Min_cycle;Max_cycle;Signal;HPM_P1;HPM_P2
2022/10/07 00:02:13;;;;;;;6.80;5.35;;;;;;;12.41;100.00;100467.45;1628968;88;20986;-74
2022/10/07 00:04:44;;;;;;;7.33;5.28;;;;;;;12.48;100.00;100470.27;1628921;88;22150;-74
2022/10/07 00:07:10;;;;;;;6.25;4.90;;;;;;;12.54;100.00;100468.77;1628912;88;21427;-74
2022/10/07 00:09:37;;;;;;;5.55;4.53;;;;;;;12.59;100.00;100469.44;1628956;88;21486;-74
2022/10/07 00:12:05;;;;;;;4.83;4.33;;;;;;;12.66;100.00;100472.25;1624705;88;20976;-74
2022/10/07 00:14:33;;;;;;;5.72;5.22;;;;;;;12.70;100.00;100469.94;1640306;87;21022;-74
2022/10/07 00:17:01;;;;;;;6.70;5.33;;;;;;;12.74;100.00;100470.70;1646355;87;21103;-74
2022/10/07 00:19:27;;;;;;;5.10;4.45;;;;;;;12.78;100.00;100469.69;1646251;87;21015;-73
2022/10/07 00:21:54;;;;;;;6.62;4.97;;;;;;;12.82;100.00;100470.41;1646419;87;20971;-73
2022/10/07 00:24:20;;;;;;;5.90;5.05;;;;;;;12.86;100.00;100472.02;1646300;87;20979;-73
2022/10/07 00:26:47;;;;;;;6.08;5.47;;;;;;;12.88;100.00;100463.23;1646435;87;21042;-73
2022/10/07 00:29:14;;;;;;;7.25;5.60;;;;;;;12.91;100.00;100464.88;1646310;87;21172;-73
2022/10/07 00:31:41;;;;;;;7.90;4.78;;;;;;;12.92;100.00;100466.14;1646359;87;21019;-73
2022/10/07 00:34:11;;;;;;;8.48;4.75;;;;;;;12.90;100.00;100469.25;1646306;87;20991;-73
2022/10/07 00:36:37;;;;;;;6.83;5.30;;;;;;;12.89;100.00;100470.16;1646363;87;21082;-74
2022/10/07 00:39:08;;;;;;;6.37;4.78;;;;;;;12.85;100.00;100472.47;1646371;87;20993;-73
2022/10/07 00:41:42;;;;;;;6.95;5.60;;;;;;;12.81;100.00;100472.17;1646577;87;21300;-73
2022/10/07 00:44:40;;;;;;;9.45;5.90;;;;;;;12.75;100.00;100474.56;1646529;87;20999;-74
2022/10/07 00:47:27;;;;;;;5.28;4.62;;;;;;;12.70;100.00;100476.92;1646395;87;21027;-74
2022/10/07 00:50:14;;;;;;;6.62;4.75;;;;;;;12.65;100.00;100478.83;1618207;87;20975;-74
2022/10/07 00:52:45;;;;;;;6.80;5.03;;;;;;;12.60;100.00;100485.50;1646566;87;21447;-74
2022/10/07 00:55:16;;;;;;;5.92;5.33;;;;;;;12.54;100.00;100487.48;1646993;86;21898;-74
2022/10/07 00:57:42;;;;;;;6.20;4.80;;;;;;;12.49;100.00;100485.02;1646322;87;20963;-74
2022/10/07 01:00:11;;;;;;;6.55;5.67;;;;;;;12.44;100.00;100494.74;1646383;87;21063;-74
2022/10/07 01:02:39;;;;;;;5.53;4.85;;;;;;;12.40;100.00;100493.12;1646347;87;20999;-74
2022/10/07 01:05:08;;;;;;;8.88;5.97;;;;;;;12.35;100.00;100489.39;1651358;86;21102;-74
2022/10/07 01:07:36;;;;;;;6.35;5.75;;;;;;;12.30;100.00;100493.05;1646312;87;21144;-74
2022/10/07 01:10:04;;;;;;;8.50;5.80;;;;;;;12.26;100.00;100491.43;1639867;87;20959;-74
2022/10/07 01:12:59;;;;;;;6.97;5.45;;;;;;;12.22;100.00;100495.03;1615271;87;21446;-74
2022/10/07 01:15:46;;;;;;;7.03;4.65;;;;;;;12.19;100.00;100496.46;1609748;88;21522;-74
2022/10/07 01:18:37;;;;;;;9.03;5.42;;;;;;;12.13;100.00;100492.28;1617214;88;21035;-73
2022/10/07 01:21:27;;;;;;;6.40;4.72;;;;;;;12.12;100.00;100502.31;1628846;87;21038;-74
2022/10/07 01:24:02;;;;;;;6.28;5.67;;;;;;;12.11;100.00;100503.66;1630443;87;21455;-74
2022/10/07 01:26:47;;;;;;;4.75;4.35;;;;;;;12.08;100.00;100505.91;1630929;87;20982;-74
2022/10/07 01:29:54;;;;;;;9.03;5.15;;;;;;;12.06;100.00;100503.34;1630881;88;21081;-74
2022/10/07 01:32:36;;;;;;;7.25;5.00;;;;;;;12.04;100.00;100505.14;1631003;87;21526;-74
2022/10/07 01:35:07;;;;;;;8.45;5.30;;;;;;;12.03;100.00;100504.73;1631725;87;21148;-74
2022/10/07 01:37:36;;;;;;;9.55;5.12;;;;;;;12.05;100.00;100511.21;1630839;88;22450;-74
2022/10/07 01:40:09;;;;;;;6.50;5.12;;;;;;;12.04;100.00;100509.50;1631031;88;20978;-74
2022/10/07 01:42:36;;;;;;;9.35;4.85;;;;;;;12.04;100.00;100515.58;1631602;87;21061;-74
2022/10/07 01:45:04;;;;;;;6.85;4.92;;;;;;;12.05;100.00;100508.16;1630875;88;20972;-74
2022/10/07 01:47:32;;;;;;;5.70;5.05;;;;;;;12.08;100.00;100515.03;1630962;88;21264;-74
2022/10/07 01:49:59;;;;;;;7.83;5.60;;;;;;;12.09;100.00;100511.53;1630791;87;21530;-74
2022/10/07 01:53:11;;;;;;;6.78;5.42;;;;;;;12.13;100.00;100520.11;1630844;87;20991;-74
2022/10/07 01:56:16;;;;;;;7.80;5.78;;;;;;;12.16;100.00;100519.58;1628667;88;21375;-74
2022/10/07 01:58:58;;;;;;;6.70;5.87;;;;;;;12.21;100.00;100516.80;1630964;88;20991;-74
2022/10/07 02:01:46;;;;;;;8.03;5.17;;;;;;;12.24;100.00;100518.86;1631033;87;21336;-74
2022/10/07 02:04:52;;;;;;;8.48;5.45;;;;;;;12.28;100.00;100520.93;1622825;88;21475;-74
2022/10/07 02:08:10;;;;;;;5.90;5.08;;;;;;;12.31;100.00;100519.09;1630943;88;21078;-74
2022/10/07 02:11:01;;;;;;;5.87;5.28;;;;;;;12.37;100.00;100523.27;1626306;87;21070;-74
2022/10/07 02:14:04;;;;;;;8.15;4.78;;;;;;;12.41;100.00;100521.78;1628642;88;21018;-73
2022/10/07 02:16:47;;;;;;;4.87;4.37;;;;;;;12.46;100.00;100524.25;1630921;87;21202;-74
2022/10/07 02:19:22;;;;;;;6.65;5.03;;;;;;;12.49;100.00;100529.38;1630770;88;21101;-74
2022/10/07 02:21:51;;;;;;;7.37;5.40;;;;;;;12.51;100.00;100530.63;1628774;88;21043;-74
2022/10/07 02:24:19;;;;;;;6.62;4.85;;;;;;;12.52;100.00;100525.81;1630858;87;21026;-74
2022/10/07 02:26:46;;;;;;;9.63;5.70;;;;;;;12.54;100.00;100529.23;1630956;87;21041;-74
2022/10/07 02:29:13;;;;;;;6.67;5.05;;;;;;;12.55;100.00;100536.16;1630933;88;21125;-74
2022/10/07 02:31:41;;;;;;;5.28;4.58;;;;;;;12.56;100.00;100536.11;1630769;87;21027;-74
2022/10/07 02:34:12;;;;;;;5.80;5.15;;;;;;;12.57;100.00;100544.34;1630931;87;20967;-74
2022/10/07 02:36:43;;;;;;;9.95;5.42;;;;;;;12.56;100.00;100545.25;1635782;87;21038;-73
2022/10/07 02:39:11;;;;;;;9.50;5.10;;;;;;;12.57;100.00;100547.41;1630864;88;21500;-74
2022/10/07 02:41:45;;;;;;;5.03;4.53;;;;;;;12.57;100.00;100550.02;1630920;87;21059;-74
2022/10/07 02:44:25;;;;;;;9.30;4.70;;;;;;;12.58;100.00;100547.36;1628073;88;21023;-75
2022/10/07 02:47:00;;;;;;;8.50;5.05;;;;;;;12.59;100.00;100548.21;1630857;88;21030;-74
2022/10/07 02:49:26;;;;;;;5.70;5.15;;;;;;;12.59;100.00;100550.34;1630924;87;21075;-74
2022/10/07 02:52:04;;;;;;;4.80;4.25;;;;;;;12.60;100.00;100553.35;1636152;87;20995;-74
2022/10/07 02:54:38;;;;;;;4.78;4.30;;;;;;;12.61;100.00;100557.67;1631003;87;21206;-74
2022/10/07 02:57:05;;;;;;;7.25;5.42;;;;;;;12.64;100.00;100552.36;1631411;87;21003;-74
2022/10/07 02:59:32;;;;;;;7.17;5.25;;;;;;;12.67;100.00;100554.02;1631038;87;20990;-74
2022/10/07 03:02:01;;;;;;;6.58;5.28;;;;;;;12.69;100.00;100561.34;1630975;87;21010;-74
2022/10/07 03:04:27;;;;;;;5.80;5.08;;;;;;;12.70;100.00;100559.14;1631080;88;21098;-75
2022/10/07 03:06:54;;;;;;;4.58;4.12;;;;;;;12.72;100.00;100567.78;1631053;87;21271;-74
2022/10/07 03:09:23;;;;;;;10.08;4.90;;;;;;;12.76;100.00;100569.39;1631353;87;21078;-74
2022/10/07 03:11:50;;;;;;;12.00;5.87;;;;;;;12.80;100.00;100563.59;1618661;88;21040;-74
2022/10/07 03:14:17;;;;;;;6.85;5.35;;;;;;;12.81;100.00;100567.46;1607242;89;21157;-74
2022/10/07 03:16:45;;;;;;;4.62;4.22;;;;;;;12.82;100.00;100565.25;1607334;89;21464;-74
2022/10/07 03:19:12;;;;;;;5.08;4.67;;;;;;;12.85;100.00;100566.91;1614546;89;21247;-74
2022/10/07 03:21:44;;;;;;;6.72;4.85;;;;;;;12.88;100.00;100562.89;1614061;88;21024;-74
2022/10/07 03:24:12;;;;;;;5.95;5.35;;;;;;;12.91;100.00;100567.56;1614530;89;21036;-74
2022/10/07 03:26:40;;;;;;;6.75;4.80;;;;;;;12.92;100.00;100569.73;1614492;88;21487;-74
2022/10/07 03:29:09;;;;;;;6.50;4.67;;;;;;;12.94;100.00;100571.84;1614569;89;21055;-74
2022/10/07 03:31:36;;;;;;;5.22;4.72;;;;;;;12.95;100.00;100573.09;1617581;88;21314;-75
2022/10/07 03:34:02;;;;;;;6.53;4.95;;;;;;;12.96;100.00;100576.11;1618780;88;21472;-74
2022/10/07 03:36:31;;;;;;;6.58;5.30;;;;;;;12.96;100.00;100574.80;1618753;88;20983;-74
2022/10/07 03:38:58;;;;;;;6.90;5.42;;;;;;;12.96;100.00;100575.26;1618831;88;21519;-74
2022/10/07 03:41:25;;;;;;;5.78;4.85;;;;;;;12.94;100.00;100572.70;1618959;88;21033;-74
2022/10/07 03:43:56;;;;;;;12.33;4.55;;;;;;;12.88;100.00;100576.80;1618788;88;21258;-74
2022/10/07 03:46:24;;;;;;;6.17;5.28;;;;;;;12.85;100.00;100575.59;1618714;88;21495;-74
2022/10/07 03:48:51;;;;;;;6.20;4.95;;;;;;;12.83;100.00;100576.55;1618732;88;21174;-74
2022/10/07 03:51:17;;;;;;;6.87;5.22;;;;;;;12.78;100.00;100578.03;1618756;88;21043;-74
2022/10/07 03:53:44;;;;;;;5.75;5.10;;;;;;;12.74;100.00;100577.72;1618875;88;21031;-74
2022/10/07 03:56:11;;;;;;;4.97;4.47;;;;;;;12.72;100.00;100584.75;1618730;88;21180;-74
2022/10/07 03:58:38;;;;;;;6.03;5.40;;;;;;;12.70;100.00;100583.94;1618677;88;21070;-75
2022/10/07 04:01:12;;;;;;;9.15;5.42;;;;;;;12.69;100.00;100585.70;1618794;88;21550;-74
2022/10/07 04:03:42;;;;;;;7.92;5.67;;;;;;;12.68;100.00;100589.66;1618448;88;21036;-74
2022/10/07 04:06:09;;;;;;;10.82;5.30;;;;;;;12.66;100.00;100594.92;1618857;88;21099;-76
2022/10/07 04:08:39;;;;;;;6.62;4.10;;;;;;;12.64;100.00;100594.56;1590010;88;21909;-69
2022/10/07 04:11:07;;;;;;;5.58;4.85;;;;;;;12.60;100.00;100595.11;1613395;88;21562;-69
2022/10/07 04:13:35;;;;;;;6.97;5.30;;;;;;;12.54;100.00;100597.94;1655303;86;21983;-68
2022/10/07 04:16:10;;;;;;;6.22;5.62;;;;;;;12.51;100.00;100599.33;1661014;86;21054;-69
2022/10/07 04:18:38;;;;;;;6.42;5.17;;;;;;;12.49;100.00;100602.89;1661086;86;21030;-69
2022/10/07 04:21:05;;;;;;;6.12;4.70;;;;;;;12.48;100.00;100603.79;1661098;86;21941;-68
2022/10/07 04:23:34;;;;;;;7.30;6.08;;;;;;;12.45;100.00;100601.27;1661096;86;21499;-68
2022/10/07 04:26:01;;;;;;;8.33;6.00;;;;;;;12.45;100.00;100607.34;1661055;86;20970;-68
2022/10/07 04:28:28;;;;;;;8.38;6.00;;;;;;;12.44;100.00;100613.46;1664299;86;21082;-68
2022/10/07 04:30:57;;;;;;;6.15;4.85;;;;;;;12.43;100.00;100618.28;1658041;86;21081;-68
2022/10/07 04:33:25;;;;;;;9.88;5.87;;;;;;;12.40;100.00;100618.36;1660588;86;21600;-68
2022/10/07 04:35:53;;;;;;;5.33;4.80;;;;;;;12.34;100.00;100622.04;1661038;86;20959;-68
2022/10/07 04:38:20;;;;;;;7.25;5.72;;;;;;;12.28;100.00;100618.75;1661027;86;21028;-68
2022/10/07 04:40:48;;;;;;;8.35;5.28;;;;;;;12.24;100.00;100619.73;1661113;86;21054;-68
2022/10/07 04:43:21;;;;;;;5.95;5.30;;;;;;;12.19;100.00;100627.69;1661066;86;20983;-68
2022/10/07 04:46:04;;;;;;;7.25;5.28;;;;;;;12.16;100.00;100630.41;1660991;86;21185;-68
2022/10/07 04:48:31;;;;;;;8.45;5.80;;;;;;;12.14;100.00;100628.30;1664019;86;20971;-68
2022/10/07 04:51:07;;;;;;;6.62;6.12;;;;;;;12.10;100.00;100628.43;1661145;86;21031;-68
2022/10/07 04:53:35;;;;;;;6.33;5.70;;;;;;;12.06;100.00;100623.30;1661174;86;21515;-68
2022/10/07 04:56:02;;;;;;;6.08;5.15;;;;;;;12.05;100.00;100629.86;1641772;86;21034;-68
2022/10/07 04:58:30;;;;;;;11.00;5.10;;;;;;;12.05;100.00;100629.41;1661136;86;21954;-68
2022/10/07 05:00:58;;;;;;;6.15;5.60;;;;;;;12.06;100.00;100635.03;1660963;86;21055;-68
2022/10/07 05:03:27;;;;;;;10.25;6.28;;;;;;;12.07;100.00;100635.89;1661114;86;21109;-68
2022/10/07 05:05:55;;;;;;;6.40;5.80;;;;;;;12.10;100.00;100649.29;1660881;86;21016;-69
2022/10/07 05:08:25;;;;;;;8.28;5.58;;;;;;;12.11;100.00;100649.25;1661401;86;21352;-69
2022/10/07 05:10:56;;;;;;;6.42;4.40;;;;;;;12.13;100.00;100657.03;1659184;85;21255;-70
2022/10/07 05:13:25;;;;;;;7.87;6.00;;;;;;;12.18;100.00;100659.06;1667578;85;20971;-68
2022/10/07 05:15:59;;;;;;;6.28;5.37;;;;;;;12.24;100.00;100651.89;1666312;85;21443;-69
2022/10/07 05:18:29;;;;;;;7.12;5.80;;;;;;;12.37;100.00;100660.23;1660173;85;21042;-69
2022/10/07 05:21:07;;;;;;;5.40;4.83;;;;;;;12.49;100.00;100657.69;1689779;85;21029;-69
2022/10/07 05:23:37;;;;;;;5.50;4.97;;;;;;;12.59;100.00;100665.66;1658381;86;21290;-69
2022/10/07 05:26:09;;;;;;;8.03;5.70;;;;;;;12.69;100.00;100662.70;1689682;85;21015;-69
2022/10/07 05:28:39;;;;;;;6.22;4.78;;;;;;;12.75;100.00;100664.27;1656399;86;24735;-69
2022/10/07 05:31:12;;;;;;;7.62;5.00;;;;;;;12.78;100.00;100673.77;1654625;85;20992;-70
2022/10/07 05:33:48;;;;;;;8.18;4.55;;;;;;;12.78;100.00;100683.77;1633344;88;21044;-69
2022/10/07 05:36:18;;;;;;;6.17;4.90;;;;;;;12.75;100.00;100678.63;1633231;88;21252;-68
2022/10/07 05:38:46;;;;;;;6.25;5.28;;;;;;;12.74;100.00;100689.97;1633132;88;21052;-68
2022/10/07 05:41:21;;;;;;;6.00;4.95;;;;;;;12.73;100.00;100681.73;1633080;88;21009;-68
2022/10/07 05:43:55;;;;;;;5.78;4.33;;;;;;;12.70;100.00;100685.74;1633290;88;21044;-68
2022/10/07 05:46:24;;;;;;;8.98;5.42;;;;;;;12.71;100.00;100695.28;1633223;88;21477;-68
2022/10/07 05:48:56;;;;;;;7.95;5.12;;;;;;;12.71;100.00;100692.22;1633234;88;21072;-68
2022/10/07 05:51:29;;;;;;;6.30;4.65;;;;;;;12.71;100.00;100692.22;1633047;88;21092;-68
2022/10/07 05:53:57;;;;;;;7.28;4.22;;;;;;;12.72;100.00;100699.61;1633171;88;21343;-68
2022/10/07 05:56:26;;;;;;;6.42;4.70;;;;;;;12.81;100.00;100704.52;1632760;87;21081;-68
2022/10/07 05:58:56;;;;;;;6.10;5.20;;;;;;;12.91;100.00;100707.27;1633113;88;21080;-68
2022/10/07 06:01:24;;;;;;;6.80;4.80;;;;;;;13.06;100.00;100704.62;1633101;88;21797;-69
2022/10/07 06:03:53;;;;;;;8.15;4.28;;;;;;;13.21;100.00;100705.45;1632997;88;21041;-69
2022/10/07 06:06:23;;;;;;;5.95;4.17;;;;;;;13.36;100.00;100706.28;1633186;88;21091;-69
2022/10/07 06:13:06;;;;;;;4.75;4.28;;;;;;;13.46;100.00;100706.81;1633268;88;21037;-69
2022/10/07 06:14:11;;;;;;;4.28;3.85;;;;;;;13.48;100.00;100707.61;1624758;88;21155;-69
2022/10/07 06:16:37;;;;;;;5.97;4.50;;;;;;;13.47;100.00;100709.83;1619901;88;21053;-69
2022/10/07 06:19:21;;;;;;;5.90;4.17;;;;;;;13.46;100.00;100717.27;1619989;88;21004;-69
2022/10/07 06:21:34;;;;;;;6.53;5.20;;;;;;;13.47;100.00;100718.12;1617846;88;21017;-69
2022/10/07 06:24:03;;;;;;;7.97;4.25;;;;;;;13.49;100.00;100719.78;1619881;87;21009;-69
2022/10/07 06:26:33;;;;;;;5.12;3.98;;;;;;;13.55;100.00;100726.12;1619995;88;21273;-69
2022/10/07 06:29:01;;;;;;;6.45;3.67;;;;;;;13.59;100.00;100725.08;1619921;87;21030;-69
2022/10/07 06:31:28;;;;;;;5.37;3.45;;;;;;;13.64;100.00;100727.55;1620009;88;21153;-69
2022/10/07 06:33:57;;;;;;;6.72;3.37;;;;;;;13.71;100.00;100728.60;1619966;88;21128;-69
2022/10/07 06:36:25;;;;;;;5.20;3.10;;;;;;;13.77;100.00;100734.94;1619960;88;20989;-69
2022/10/07 06:38:54;;;;;;;4.83;3.05;;;;;;;13.78;99.04;100735.34;1619700;87;21235;-70
2022/10/07 06:41:23;;;;;;;4.70;3.27;;;;;;;13.78;99.55;100731.87;1618497;87;21670;-70
2022/10/07 06:43:55;;;;;;;4.97;3.50;;;;;;;13.76;98.33;100728.00;1616649;88;21096;-71
2022/10/07 06:46:24;;;;;;;4.42;3.05;;;;;;;13.74;97.95;100735.05;1618351;87;21159;-71
2022/10/07 06:48:52;;;;;;;6.60;3.15;;;;;;;13.78;97.90;100731.87;1617932;88;21072;-70
2022/10/07 06:51:24;;;;;;;6.42;2.90;;;;;;;13.83;96.36;100735.16;1618421;88;21145;-70
2022/10/07 06:53:56;;;;;;;7.25;2.58;;;;;;;13.87;94.44;100735.91;1618168;88;21143;-70
2022/10/07 06:56:23;;;;;;;3.17;2.60;;;;;;;13.89;91.07;100750.65;1617797;88;21072;-71
2022/10/07 06:58:50;;;;;;;4.62;2.30;;;;;;;13.88;91.15;100742.85;1618093;88;21108;-71
2022/10/07 07:01:19;;;;;;;5.17;2.37;;;;;;;13.85;90.34;100739.03;1618087;88;21137;-71
2022/10/07 07:03:47;;;;;;;3.17;2.10;;;;;;;13.86;89.67;100749.89;1618148;87;21293;-70
2022/10/07 07:06:17;;;;;;;5.53;2.17;;;;;;;13.87;89.47;100750.30;1618024;87;21103;-70
2022/10/07 07:08:44;;;;;;;4.97;2.33;;;;;;;13.89;88.27;100751.95;1617902;88;21555;-71
2022/10/07 07:14:01;;;;;;;5.25;2.60;;;;;;;13.98;86.36;100748.18;1621910;88;21057;-69
2022/10/07 07:16:31;;;;;;;3.60;2.02;;;;;;;14.03;86.63;100748.84;1624403;88;21250;-72
2022/10/07 07:19:04;;;;;;;4.12;2.12;;;;;;;14.09;85.49;100739.03;1633079;88;21044;-70
2022/10/07 07:21:34;;;;;;;7.35;2.77;;;;;;;14.17;86.33;100738.77;1614272;88;21056;-70
2022/10/07 07:24:03;;;;;;;7.37;1.72;;;;;;;14.27;84.33;100740.12;1633041;88;21532;-70
2022/10/07 07:26:32;;;;;;;6.08;2.37;;;;;;;14.34;81.60;100740.77;1633383;88;21061;-71
2022/10/07 07:29:04;;;;;;;8.28;2.10;;;;;;;14.35;80.80;100747.25;1633148;88;21247;-71
2022/10/07 07:31:35;;;;;;;4.95;2.35;;;;;;;14.37;81.65;100743.27;1632709;87;21514;-71
2022/10/07 07:34:06;;;;;;;6.40;2.17;;;;;;;14.39;81.81;100740.12;1633029;88;21020;-70
2022/10/07 07:36:35;;;;;;;5.75;2.25;;;;;;;14.41;81.61;100735.72;1608616;87;21460;-70
2022/10/07 07:39:08;;;;;;;9.73;2.70;;;;;;;14.44;82.98;100737.77;1632623;88;21040;-70
2022/10/07 07:41:39;;;;;;;12.33;2.45;;;;;;;14.50;82.13;100747.17;1614259;88;21144;-70
2022/10/07 07:44:10;;;;;;;6.40;2.17;;;;;;;14.54;81.62;100742.67;1633159;88;21087;-70
2022/10/07 07:46:47;;;;;;;5.12;2.42;;;;;;;14.57;79.68;100755.66;1633167;88;21067;-70
2022/10/07 07:49:14;;;;;;;10.70;2.80;;;;;;;14.58;79.17;100739.89;1633168;88;21488;-70
2022/10/07 07:51:42;;;;;;;6.78;2.77;;;;;;;14.62;80.52;100741.45;1633224;86;21469;-71
2022/10/07 07:54:13;;;;;;;4.78;2.45;;;;;;;14.64;80.88;100751.87;1634539;87;21145;-70
2022/10/07 07:56:43;;;;;;;5.53;1.80;;;;;;;14.62;81.15;100744.53;1637898;86;21503;-70
2022/10/07 07:59:11;;;;;;;3.85;2.15;;;;;;;14.61;81.45;100738.44;1638961;87;21529;-70
2022/10/07 08:01:38;;;;;;;3.75;1.92;;;;;;;14.65;79.98;100736.11;1637116;85;21014;-70
2022/10/07 08:04:05;;;;;;;12.93;2.58;;;;;;;14.67;78.10;100739.52;1637115;87;21022;-70
2022/10/07 08:06:33;;;;;;;5.08;2.05;;;;;;;14.67;76.80;100734.74;1636804;86;21142;-70
2022/10/07 08:09:03;;;;;;;4.65;1.75;;;;;;;14.68;76.55;100744.31;1635623;87;21061;-70
2022/10/07 08:11:34;;;;;;;3.37;1.90;;;;;;;14.71;75.89;100746.36;1636246;87;21026;-71
2022/10/07 08:14:03;;;;;;;5.28;1.90;;;;;;;14.74;76.15;100738.84;1613696;88;21538;-71
2022/10/07 08:16:39;;;;;;;4.75;1.65;;;;;;;14.77;74.57;100742.20;1617765;88;21039;-71
2022/10/07 08:19:08;;;;;;;4.62;1.60;;;;;;;14.79;73.38;100729.88;1635422;86;21263;-71
2022/10/07 08:21:35;;;;;;;5.97;1.90;;;;;;;14.81;72.40;100726.75;1655874;86;20963;-71
2022/10/07 08:24:05;;;;;;;4.40;1.60;;;;;;;14.81;73.05;100726.75;1660670;85;20987;-71
2022/10/07 08:26:36;;;;;;;5.75;1.77;;;;;;;14.85;72.85;100729.25;1690026;85;21022;-71
2022/10/07 08:29:03;;;;;;;3.77;2.33;;;;;;;14.85;73.26;100723.55;1689631;85;20998;-71
2022/10/07 08:31:31;;;;;;;2.92;1.60;;;;;;;14.85;73.26;100723.55;1670330;85;21245;-72
2022/10/07 08:34:00;;;;;;;5.62;2.22;;;;;;;14.89;73.01;100721.22;1673758;85;21565;-71
2022/10/07 08:36:31;;;;;;;4.40;1.77;;;;;;;14.91;74.01;100715.92;1643856;85;21050;-72
2022/10/07 08:39:00;;;;;;;6.47;1.70;;;;;;;14.98;73.83;100719.56;1688093;85;21018;-70
2022/10/07 08:41:56;;;;;;;2.67;1.57;;;;;;;15.06;73.46;100712.23;1656972;85;21059;-70
2022/10/07 08:44:34;;;;;;;4.12;1.90;;;;;;;15.06;73.46;100712.23;1689349;85;21173;-69
2022/10/07 08:47:33;;;;;;;6.28;1.90;;;;;;;15.11;72.89;100715.98;1688300;85;21010;-70
2022/10/07 08:50:14;;;;;;;2.80;1.42;;;;;;;15.13;73.11;100711.53;1686808;85;21335;-72
2022/10/07 08:53:00;;;;;;;4.42;1.37;;;;;;;15.22;71.18;100713.77;1699919;83;21053;-71
2022/10/07 08:55:41;;;;;;;4.33;1.75;;;;;;;15.22;71.18;100713.77;1674314;83;21101;-71
2022/10/07 08:58:34;;;;;;;14.25;8.93;;;;;;;15.27;72.77;100705.72;1686269;83;22134;-71
2022/10/07 09:01:14;;;;;;;3.22;2.20;;;;;;;15.27;72.77;100705.72;1684311;83;21312;-70
2022/10/07 09:04:06;;;;;;;5.97;1.90;;;;;;;15.34;72.23;100709.34;1686836;85;21202;-70
2022/10/07 09:06:37;;;;;;;5.60;2.33;;;;;;;15.37;72.35;100701.36;1687296;85;21109;-71
2022/10/07 09:09:12;;;;;;;7.25;2.17;;;;;;;15.42;71.46;100705.93;1686669;85;21494;-70
2022/10/07 09:11:41;;;;;;;3.05;1.65;;;;;;;15.48;70.85;100703.52;1687324;85;21650;-71
2022/10/07 09:14:23;;;;;;;6.70;2.10;;;;;;;15.48;70.85;100703.52;1683917;85;37390;-71
2022/10/07 09:16:50;;;;;;;4.58;2.12;;;;;;;15.51;69.65;100703.40;1677988;85;21527;-71
2022/10/07 09:19:28;;;;;;;4.47;2.08;;;;;;;15.51;68.67;100708.19;1678092;85;21055;-71
2022/10/07 09:21:59;;;;;;;4.30;1.95;;;;;;;15.54;69.11;100707.20;1648184;85;21072;-70
2022/10/07 09:24:27;;;;;;;3.95;1.70;;;;;;;15.58;67.63;100707.52;1678106;85;21100;-70
2022/10/07 09:26:57;;;;;;;3.77;1.25;;;;;;;15.61;67.10;100709.12;1677945;85;21016;-71
2022/10/07 09:29:28;;;;;;;3.85;1.10;;;;;;;15.61;66.37;100707.81;1678321;85;21016;-70
2022/10/07 09:31:56;;;;;;;4.92;1.60;;;;;;;15.63;65.45;100705.52;1678199;83;21028;-70
2022/10/07 09:34:28;;;;;;;3.20;1.27;;;;;;;15.64;65.91;100698.05;1679774;83;20997;-70
2022/10/07 09:37:15;;;;;;;3.17;1.20;;;;;;;15.67;66.49;100699.69;1680417;85;21134;-70
2022/10/07 09:39:43;;;;;;;4.80;1.80;;;;;;;15.72;66.70;100701.66;1649246;87;20979;-70
2022/10/07 09:42:34;;;;;;;5.22;1.90;;;;;;;15.81;66.98;100699.48;1679938;85;20969;-71
2022/10/07 09:45:21;;;;;;;4.12;1.50;;;;;;;15.88;65.74;100689.58;1680190;85;20981;-70
2022/10/07 09:47:53;;;;;;;6.05;1.50;;;;;;;15.99;64.75;100693.03;1649306;87;21015;-71
2022/10/07 09:50:36;;;;;;;4.65;1.70;;;;;;;16.04;65.91;100688.44;1680162;85;21810;-71
2022/10/07 09:53:22;;;;;;;4.42;1.60;;;;;;;16.13;66.47;100688.89;1680131;85;21448;-71
2022/10/07 09:55:51;;;;;;;4.12;1.60;;;;;;;16.22;65.88;100686.30;1649334;87;21570;-71
2022/10/07 09:58:25;;;;;;;5.42;1.72;;;;;;;16.28;64.85;100683.40;1680152;83;21508;-70
2022/10/07 10:00:55;;;;;;;3.22;1.60;;;;;;;16.28;65.07;100676.84;1680167;85;20961;-70
2022/10/07 10:03:35;;;;;;;6.08;1.90;;;;;;;16.31;64.78;100672.77;1679959;85;20948;-71
2022/10/07 10:06:07;;;;;;;5.53;1.90;;;;;;;16.36;65.11;100671.25;1680085;85;21029;-70
2022/10/07 10:08:40;;;;;;;3.47;1.67;;;;;;;16.40;64.78;100673.63;1680162;85;21047;-70
2022/10/07 10:11:27;;;;;;;3.05;1.60;;;;;;;16.43;63.96;100671.33;1680190;85;21567;-70
2022/10/07 10:13:55;;;;;;;6.50;1.42;;;;;;;16.46;62.92;100675.98;1681030;85;20969;-70
2022/10/07 10:16:36;;;;;;;3.75;1.45;;;;;;;16.47;62.86;100671.59;1686574;85;21308;-69
2022/10/07 10:19:25;;;;;;;5.65;1.25;;;;;;;16.51;62.82;100669.21;1666359;85;21044;-69
2022/10/07 10:22:03;;;;;;;4.15;1.90;;;;;;;16.54;62.93;100667.30;1688937;85;21012;-70
2022/10/07 10:27:30;;;;;;;3.02;1.22;;;;;;;16.59;62.30;100661.80;1687243;84;20980;-69
2022/10/07 10:30:16;;;;;;;4.40;1.92;;;;;;;16.61;61.99;100659.11;1684055;85;21731;-69
2022/10/07 10:33:15;;;;;;;5.28;1.42;;;;;;;16.62;62.18;100655.09;1687604;84;21567;-70
2022/10/07 10:35:48;;;;;;;4.20;1.57;;;;;;;16.62;62.34;100653.78;1685161;83;20981;-70
2022/10/07 10:38:35;;;;;;;2.80;1.40;;;;;;;16.65;62.35;100649.73;1677948;85;21495;-70
2022/10/07 10:41:19;;;;;;;2.77;1.25;;;;;;;16.69;62.04;100650.45;1682348;83;20995;-71
2022/10/07 10:44:20;;;;;;;7.55;1.95;;;;;;;16.72;62.60;100649.84;1654228;83;21184;-70
2022/10/07 10:46:59;;;;;;;3.25;1.42;;;;;;;16.76;62.43;100647.47;1697517;83;21161;-71
2022/10/07 10:49:37;;;;;;;2.87;1.30;;;;;;;16.80;61.71;100647.68;1683274;85;21112;-69
2022/10/07 10:52:47;;;;;;;5.92;1.92;;;;;;;16.81;61.44;100646.75;1666526;85;21091;-70
2022/10/07 10:55:26;;;;;;;3.52;1.60;;;;;;;16.80;61.79;100637.63;1656169;86;20979;-70
2022/10/07 10:58:27;;;;;;;4.45;1.27;;;;;;;16.80;60.91;100627.97;1662110;86;21181;-70
2022/10/07 11:01:15;;;;;;;2.55;1.15;;;;;;;16.82;59.77;100627.90;1661752;86;21537;-69
2022/10/07 11:04:11;;;;;;;3.05;1.17;;;;;;;16.84;58.73;100626.91;1628262;87;21143;-70
2022/10/07 11:06:43;;;;;;;3.10;1.57;;;;;;;16.88;59.14;100619.73;1607164;89;21093;-70
2022/10/07 11:09:21;;;;;;;6.60;1.57;;;;;;;16.93;58.24;100618.19;1607223;89;21106;-71
2022/10/07 11:11:49;;;;;;;6.25;1.15;;;;;;;16.95;57.73;100622.45;1606436;89;21534;-71
2022/10/07 11:14:24;;;;;;;3.95;1.22;;;;;;;16.97;58.11;100615.34;1601273;88;21240;-71
2022/10/07 11:16:58;;;;;;;5.08;1.80;;;;;;;16.99;58.58;100611.30;1592706;90;21194;-70
2022/10/07 11:19:52;;;;;;;5.37;2.30;;;;;;;17.04;57.89;100611.47;1592647;89;21539;-70
2022/10/07 11:22:24;;;;;;;4.33;1.25;;;;;;;17.07;57.73;100610.47;1632832;87;21033;-69
2022/10/07 11:24:55;;;;;;;3.58;1.22;;;;;;;17.10;58.45;100603.74;1671368;84;21159;-70
2022/10/07 11:27:26;;;;;;;2.80;1.10;;;;;;;17.13;57.55;100603.13;1686567;85;21069;-70
2022/10/07 11:30:17;;;;;;;4.25;1.57;;;;;;;17.15;57.02;100601.74;1691380;83;21937;-70
2022/10/07 11:33:07;;;;;;;3.80;1.60;;;;;;;17.17;56.26;100595.95;1677704;83;21020;-69
2022/10/07 11:35:49;;;;;;;2.85;1.22;;;;;;;17.20;56.32;100596.61;1660845;85;21059;-70
2022/10/07 11:38:19;;;;;;;4.58;1.30;;;;;;;17.21;56.27;100595.69;1661814;86;21226;-69
2022/10/07 11:41:24;;;;;;;6.60;1.72;;;;;;;17.21;55.77;100591.74;1678999;83;21854;-70
2022/10/07 11:43:57;;;;;;;3.50;1.60;;;;;;;17.21;55.88;100589.58;1686067;85;21565;-70
2022/10/07 11:46:43;;;;;;;4.83;2.70;;;;;;;17.21;55.95;100590.42;1660235;85;20963;-70
2022/10/07 11:49:30;;;;;;;4.47;1.57;;;;;;;17.22;55.53;100589.97;1682449;85;21050;-69
2022/10/07 11:52:23;;;;;;;6.03;1.67;;;;;;;17.22;55.07;100590.81;1668960;85;21153;-69
2022/10/07 11:55:08;;;;;;;2.22;1.27;;;;;;;17.23;55.32;100585.09;1629323;88;21013;-69
2022/10/07 11:57:38;;;;;;;1.20;0.90;;;;;;;17.26;56.10;100590.66;1632775;86;21074;-70
2022/10/07 12:00:22;;;;;;;3.92;1.40;;;;;;;17.25;54.72;100588.50;1619595;86;21059;-70